createdAt,value
2023-04-10T00:01:00.307Z,98244.39
2023-04-10T00:03:31.881Z,98244.59
2023-04-10T00:06:03.073Z,98237.90
2023-04-10T00:08:33.531Z,98239.11
2023-04-10T00:11:04.294Z,98240.33
2023-04-10T00:13:34.963Z,98242.57
2023-04-10T00:16:05.994Z,98243.62
2023-04-10T00:18:36.364Z,98242.27
2023-04-10T00:21:08.031Z,98242.97
2023-04-10T00:23:38.727Z,98242.64
2023-04-10T00:26:09.450Z,98243.83
2023-04-10T00:28:40.989Z,98241.75
2023-04-10T00:31:11.790Z,98242.95
2023-04-10T00:33:42.434Z,98240.69
2023-04-10T00:36:13.395Z,98238.27
2023-04-10T00:38:44.503Z,98236.18
2023-04-10T00:41:15.214Z,98237.22
2023-04-10T00:43:46.306Z,98239.42
2023-04-10T00:46:17.732Z,98233.05
2023-04-10T00:48:48.609Z,98233.90
2023-04-10T00:51:20.979Z,98228.73
2023-04-10T00:53:52.905Z,98231.65
2023-04-10T00:56:25.441Z,98229.23
2023-04-10T00:58:56.075Z,98224.09
2023-04-10T01:01:27.110Z,98221.16
2023-04-10T01:03:58.335Z,98217.70
2023-04-10T01:06:46.557Z,98216.31
2023-04-10T01:09:22.442Z,98216.64
2023-04-10T01:11:55.194Z,98213.02
2023-04-10T01:14:34.961Z,98212.67
2023-04-10T01:17:09.116Z,98211.97
2023-04-10T01:19:52.561Z,98212.95
2023-04-10T01:22:25.089Z,98215.88
2023-04-10T01:25:04.188Z,98221.71
2023-04-10T01:27:44.619Z,98218.44
2023-04-10T01:30:19.670Z,98217.10
2023-04-10T01:32:51.758Z,98216.94
2023-04-10T01:35:22.943Z,98215.07
2023-04-10T01:37:55.049Z,98214.73
2023-04-10T01:40:27.851Z,98211.63
2023-04-10T01:43:01.316Z,98214.73
2023-04-10T01:45:42.123Z,98212.65
2023-04-10T01:48:13.752Z,98214.68
2023-04-10T01:50:45.135Z,98211.39
2023-04-10T01:53:16.585Z,98207.57
2023-04-10T01:55:47.254Z,98210.16
2023-04-10T01:58:18.752Z,98207.39
2023-04-10T02:00:51.645Z,98205.49
2023-04-10T02:03:22.636Z,98205.46
2023-04-10T02:05:58.866Z,98205.65
2023-04-10T02:08:33.195Z,98206.49
2023-04-10T02:11:09.866Z,98206.33
2023-04-10T02:13:41.471Z,98206.50
2023-04-10T02:16:17.943Z,98207.85
2023-04-10T02:18:49.141Z,98204.40
2023-04-10T02:21:19.837Z,98198.35
2023-04-10T02:23:51.448Z,98195.27
2023-04-10T02:26:22.510Z,98192.69
2023-04-10T02:28:53.995Z,98194.60
2023-04-10T02:31:26.132Z,98193.73
2023-04-10T02:33:57.979Z,98194.59
2023-04-10T02:36:28.742Z,98196.46
2023-04-10T02:38:59.746Z,98197.66
2023-04-10T02:41:30.633Z,98197.48
2023-04-10T02:44:02.600Z,98202.31
2023-04-10T02:46:33.503Z,98205.91
2023-04-10T02:49:04.863Z,98204.88
2023-04-10T02:51:37.792Z,98201.26
2023-04-10T02:54:09.162Z,98205.55
2023-04-10T02:56:39.954Z,98199.87
2023-04-10T02:59:10.818Z,98196.77
2023-04-10T03:01:43.108Z,98194.70
2023-04-10T03:04:13.969Z,98195.22
2023-04-10T03:06:45.004Z,98191.61
2023-04-10T03:09:15.689Z,98195.38
2023-04-10T03:11:47.263Z,98196.23
2023-04-10T03:14:18.865Z,98191.75
2023-04-10T03:16:50.804Z,98190.55
2023-04-10T03:19:26.961Z,98190.73
2023-04-10T03:21:57.696Z,98190.89
2023-04-10T03:24:29.412Z,98194.67
2023-04-10T03:27:00.712Z,98198.96
2023-04-10T03:29:31.506Z,98194.67
2023-04-10T03:32:02.385Z,98192.61
2023-04-10T03:34:34.096Z,98197.25
2023-04-10T03:37:04.684Z,98198.97
2023-04-10T03:39:35.412Z,98198.48
2023-04-10T03:42:06.131Z,98196.25
2023-04-10T03:44:37.726Z,98196.58
2023-04-10T03:47:08.427Z,98202.24
2023-04-10T03:49:39.581Z,98203.65
2023-04-10T03:52:10.299Z,98203.48
2023-04-10T03:54:43.068Z,98201.75
2023-04-10T03:57:22.020Z,98209.70
2023-04-10T03:59:53.436Z,98206.09
2023-04-10T04:02:24.288Z,98211.88
2023-04-10T04:04:57.686Z,98208.92
2023-04-10T04:07:50.081Z,98214.81
2023-04-10T04:10:41.616Z,98214.11
2023-04-10T04:13:26.050Z,98217.88
2023-04-10T04:16:11.935Z,98215.64
2023-04-10T04:18:57.649Z,98217.70
2023-04-10T04:21:34.692Z,98218.54
2023-04-10T04:24:11.248Z,98224.60
2023-04-10T04:27:17.356Z,98223.88
2023-04-10T04:30:14.651Z,98219.56
2023-04-10T04:33:05.334Z,98225.43
2023-04-10T04:35:46.609Z,98226.80
2023-04-10T04:38:52.837Z,98229.19
2023-04-10T04:41:31.690Z,98232.64
2023-04-10T04:44:25.312Z,98231.27
2023-04-10T04:47:16.068Z,98236.41
2023-04-10T04:50:12.252Z,98241.07
2023-04-10T04:53:08.119Z,98243.12
2023-04-10T04:56:14.428Z,98239.32
2023-04-10T04:58:47.626Z,98245.34
2023-04-10T05:01:31.891Z,98245.50
2023-04-10T05:04:20.884Z,98246.86
2023-04-10T05:07:12.600Z,98245.00
2023-04-10T05:09:58.491Z,98247.58
2023-04-10T05:12:43.942Z,98247.00
2023-04-10T05:15:32.137Z,98245.10
2023-04-10T05:18:25.826Z,98248.52
2023-04-10T05:21:10.544Z,98256.44
2023-04-10T05:23:55.917Z,98258.86
2023-04-10T05:26:32.218Z,98260.73
2023-04-10T05:29:35.561Z,98257.61
2023-04-10T05:32:22.905Z,98260.11
2023-04-10T05:35:23.140Z,98256.37
2023-04-10T05:38:16.838Z,98256.54
2023-04-10T05:41:07.858Z,98266.20
2023-04-10T05:43:45.789Z,98271.34
2023-04-10T05:46:27.935Z,98272.02
2023-04-10T05:49:17.483Z,98272.86
2023-04-10T05:52:08.247Z,98269.77
2023-04-10T05:54:57.584Z,98263.52
2023-04-10T05:57:31.257Z,98264.20
2023-04-10T06:00:22.673Z,98262.11
2023-04-10T06:03:30.770Z,98261.40
2023-04-10T06:06:04.370Z,98262.81
2023-04-10T06:08:35.229Z,98262.52
2023-04-10T06:11:05.949Z,98262.92
2023-04-10T06:13:36.700Z,98256.67
2023-04-10T06:16:08.045Z,98255.09
2023-04-10T06:18:40.830Z,98257.33
2023-04-10T06:21:11.690Z,98256.48
2023-04-10T06:23:42.828Z,98257.16
2023-04-10T06:26:13.668Z,98257.30
2023-04-10T06:28:45.270Z,98258.14
2023-04-10T06:31:17.794Z,98264.81
2023-04-10T06:33:49.086Z,98263.62
2023-04-10T06:36:20.127Z,98260.30
2023-04-10T06:38:54.278Z,98266.11
2023-04-10T06:41:25.175Z,98267.85
2023-04-10T06:43:58.123Z,98269.02
2023-04-10T06:46:29.720Z,98270.19
2023-04-10T06:49:00.728Z,98271.86
2023-04-10T06:51:31.901Z,98271.94
2023-04-10T06:54:02.646Z,98273.91
2023-04-10T06:56:33.625Z,98277.45
2023-04-10T06:59:04.354Z,98281.21
2023-04-10T07:01:35.032Z,98281.36
2023-04-10T07:04:06.295Z,98283.77
2023-04-10T07:06:37.358Z,98282.33
2023-04-10T07:09:08.254Z,98284.55
2023-04-10T07:11:39.299Z,98283.71
2023-04-10T07:14:11.423Z,98283.04
2023-04-10T07:16:47.711Z,98282.52
2023-04-10T07:19:20.575Z,98282.84
2023-04-10T07:21:51.277Z,98275.95
2023-04-10T07:24:22.967Z,98276.75
2023-04-10T07:26:53.781Z,98271.91
2023-04-10T07:29:24.445Z,98271.04
2023-04-10T07:31:56.841Z,98272.96
2023-04-10T07:34:27.655Z,98277.78
2023-04-10T07:36:58.658Z,98274.37
2023-04-10T07:39:29.483Z,98272.25
2023-04-10T07:42:00.214Z,98277.75
2023-04-10T07:44:31.795Z,98284.95
2023-04-10T07:47:02.576Z,98285.89
2023-04-10T07:49:33.713Z,98288.64
2023-04-10T07:52:04.354Z,98288.89
2023-04-10T07:54:35.589Z,98286.72
2023-04-10T07:57:06.141Z,98286.91
2023-04-10T07:59:36.733Z,98284.22
2023-04-10T08:02:07.609Z,98288.06
2023-04-10T08:04:38.958Z,98291.56
2023-04-10T08:07:09.973Z,98296.47
2023-04-10T08:09:40.915Z,98294.02
2023-04-10T08:12:11.469Z,98288.06
2023-04-10T08:14:42.352Z,98286.39
2023-04-10T08:17:15.171Z,98284.81
2023-04-10T08:19:45.955Z,98279.21
2023-04-10T08:22:16.282Z,98275.07
2023-04-10T08:24:47.505Z,98274.63
2023-04-10T08:27:17.992Z,98273.51
2023-04-10T08:29:48.819Z,98273.84
2023-04-10T08:32:19.441Z,98276.16
2023-04-10T08:34:51.663Z,98277.47
2023-04-10T08:37:22.487Z,98278.11
2023-04-10T08:39:53.229Z,98277.71
2023-04-10T08:42:23.964Z,98280.58
2023-04-10T08:44:54.742Z,98281.00
2023-04-10T08:47:28.646Z,98279.62
2023-04-10T08:50:00.409Z,98276.24
2023-04-10T08:52:32.890Z,98273.45
2023-04-10T08:55:07.636Z,98274.47
2023-04-10T08:57:40.611Z,98276.90
2023-04-10T09:02:47.768Z,98273.48
2023-04-10T09:05:19.133Z,98272.66
2023-04-10T09:07:49.700Z,98274.45
2023-04-10T09:10:20.645Z,98276.45
2023-04-10T09:12:52.019Z,98276.95
2023-04-10T09:15:22.894Z,98275.42
2023-04-10T09:18:01.170Z,98274.95
2023-04-10T09:20:33.223Z,98271.17
2023-04-10T09:23:04.412Z,98264.23
2023-04-10T09:25:37.154Z,98263.60
2023-04-10T09:28:08.687Z,98261.08
2023-04-10T09:30:40.526Z,98258.95
2023-04-10T09:33:25.295Z,98252.48
2023-04-10T09:36:00.423Z,98256.91
2023-04-10T09:38:31.602Z,98253.20
2023-04-10T09:41:11.240Z,98245.43
2023-04-10T09:43:44.090Z,98245.73
2023-04-10T09:46:29.143Z,98240.54
2023-04-10T09:49:01.963Z,98242.73
2023-04-10T09:51:35.189Z,98239.20
2023-04-10T09:54:06.477Z,98240.23
2023-04-10T09:56:41.739Z,98234.70
2023-04-10T09:59:16.303Z,98235.52
2023-04-10T10:01:47.506Z,98235.43
2023-04-10T10:04:20.053Z,98236.52
2023-04-10T10:06:51.107Z,98235.77
2023-04-10T10:09:22.009Z,98238.23
2023-04-10T10:11:54.269Z,98232.92
2023-04-10T10:14:29.283Z,98231.98
2023-04-10T10:17:03.816Z,98227.91
2023-04-10T10:19:38.809Z,98230.34
2023-04-10T10:22:11.531Z,98225.15
2023-04-10T10:24:48.022Z,98224.32
2023-04-10T10:27:19.904Z,98221.07
2023-04-10T10:29:51.553Z,98224.41
2023-04-10T10:32:23.099Z,98219.48
2023-04-10T10:34:54.424Z,98216.61
2023-04-10T10:37:25.624Z,98210.19
2023-04-10T10:40:03.573Z,98207.15
2023-04-10T10:42:36.115Z,98210.91
2023-04-10T10:45:11.519Z,98205.76
2023-04-10T10:47:47.689Z,98207.16
2023-04-10T10:50:18.559Z,98209.10
2023-04-10T10:52:50.146Z,98206.70
2023-04-10T10:55:39.048Z,98201.75
2023-04-10T10:58:11.673Z,98198.45
2023-04-10T11:01:00.517Z,98196.70
2023-04-10T11:03:32.130Z,98193.73
2023-04-10T11:06:04.276Z,98189.39
2023-04-10T11:08:55.125Z,98188.98
2023-04-10T11:11:27.769Z,98180.52
2023-04-10T11:14:22.202Z,98177.63
2023-04-10T11:16:52.931Z,98177.89
2023-04-10T11:19:26.605Z,98174.40
2023-04-10T11:22:04.777Z,98172.69
2023-04-10T11:24:48.652Z,98166.79
2023-04-10T11:27:32.392Z,98157.15
2023-04-10T11:30:03.229Z,98160.39
2023-04-10T11:32:42.906Z,98152.73
2023-04-10T11:35:13.862Z,98150.40
2023-04-10T11:37:44.566Z,98145.98
2023-04-10T11:40:17.098Z,98139.29
2023-04-10T11:42:48.458Z,98139.04
2023-04-10T11:45:29.722Z,98138.27
2023-04-10T11:48:01.525Z,98139.91
2023-04-10T11:50:36.780Z,98131.52
2023-04-10T11:53:20.336Z,98128.05
2023-04-10T11:55:52.443Z,98125.55
2023-04-10T11:58:27.016Z,98126.76
2023-04-10T12:01:03.868Z,98123.27
2023-04-10T12:03:37.819Z,98121.39
2023-04-10T12:06:10.968Z,98120.14
2023-04-10T12:08:43.023Z,98116.67
2023-04-10T12:11:14.114Z,98119.11
2023-04-10T12:13:44.749Z,98116.45
2023-04-10T12:16:16.506Z,98107.86
2023-04-10T12:18:47.397Z,98100.61
2023-04-10T12:21:18.365Z,98094.05
2023-04-10T12:23:48.840Z,98087.61
2023-04-10T12:26:20.277Z,98086.36
2023-04-10T12:28:54.593Z,98079.32
2023-04-10T12:31:33.089Z,98072.55
2023-04-10T12:34:05.681Z,98074.23
2023-04-10T12:36:36.423Z,98072.89
2023-04-10T12:39:07.643Z,98070.80
2023-04-10T12:41:39.353Z,98067.98
2023-04-10T12:44:10.735Z,98062.60
2023-04-10T12:46:42.273Z,98058.21
2023-04-10T12:49:13.999Z,98055.73
2023-04-10T12:51:48.786Z,98051.93
2023-04-10T12:54:33.566Z,98049.92
2023-04-10T12:57:04.440Z,98045.67
2023-04-10T12:59:35.453Z,98041.23
2023-04-10T13:02:06.513Z,98039.30
2023-04-10T13:04:37.307Z,98034.75
2023-04-10T13:07:08.209Z,98027.37
2023-04-10T13:09:38.812Z,98026.64
2023-04-10T13:12:09.518Z,98015.59
2023-04-10T13:14:40.202Z,98009.39
2023-04-10T13:17:11.090Z,98005.53
2023-04-10T13:19:42.291Z,98000.66
2023-04-10T13:22:12.940Z,97997.65
2023-04-10T13:24:44.102Z,97996.95
2023-04-10T13:27:15.182Z,97995.16
2023-04-10T13:29:45.998Z,97982.12
2023-04-10T13:32:16.656Z,97975.76
2023-04-10T13:34:47.954Z,97971.83
2023-04-10T13:37:20.585Z,97976.02
2023-04-10T13:39:51.435Z,97975.88
2023-04-10T13:42:22.283Z,97975.86
2023-04-10T13:44:52.941Z,97984.23
2023-04-10T13:47:23.813Z,97993.08
2023-04-10T13:53:24.815Z,97981.79
2023-04-10T13:55:55.334Z,97975.60
2023-04-10T13:58:27.186Z,97969.51
2023-04-10T14:01:01.940Z,97966.04
2023-04-10T14:03:32.952Z,97971.00
2023-04-10T14:06:05.346Z,97971.80
2023-04-10T14:08:36.067Z,97974.70
2023-04-10T14:11:06.995Z,97972.40
2023-04-10T14:13:39.414Z,97975.48
2023-04-10T14:16:12.097Z,97973.95
2023-04-10T14:18:42.980Z,97968.35
2023-04-10T14:22:17.827Z,97965.66
2023-04-10T14:24:52.610Z,97968.44
2023-04-10T14:27:29.077Z,97966.95
2023-04-10T14:30:02.186Z,97965.93
2023-04-10T14:32:37.046Z,97955.34
2023-04-10T14:35:11.380Z,97950.16
2023-04-10T14:37:45.238Z,97942.85
2023-04-10T14:40:17.860Z,97943.00
2023-04-10T14:42:50.411Z,97942.43
2023-04-10T14:45:23.226Z,97945.25
2023-04-10T14:47:56.347Z,97950.79
2023-04-10T14:50:29.728Z,97950.40
2023-04-10T14:53:02.164Z,97945.20
2023-04-10T14:55:35.132Z,97943.11
2023-04-10T14:58:09.633Z,97944.92
2023-04-10T15:00:45.377Z,97942.74
2023-04-10T15:03:20.760Z,97943.29
2023-04-10T15:06:04.505Z,97940.80
2023-04-10T15:08:40.577Z,97940.11
2023-04-10T15:11:16.320Z,97940.95
2023-04-10T15:13:50.374Z,97942.66
2023-04-10T15:16:24.759Z,97942.85
2023-04-10T15:19:01.343Z,97941.39
2023-04-10T15:21:34.764Z,97937.12
2023-04-10T15:24:06.183Z,97938.08
2023-04-10T15:26:44.671Z,97939.81
2023-04-10T15:29:21.017Z,97939.08
2023-04-10T15:31:56.793Z,97935.80
2023-04-10T15:34:30.808Z,97938.53
2023-04-10T15:37:03.055Z,97942.42
2023-04-10T15:39:37.538Z,97940.83
2023-04-10T15:42:14.232Z,97945.73
2023-04-10T15:44:49.385Z,97953.37
2023-04-10T15:47:23.853Z,97960.39
2023-04-10T15:49:59.967Z,97967.23
2023-04-10T15:52:34.771Z,97962.44
2023-04-10T15:55:15.083Z,97950.30
2023-04-10T15:57:49.897Z,97957.02
2023-04-10T16:00:24.434Z,97952.85
2023-04-10T16:02:58.725Z,97943.96
2023-04-10T16:05:31.464Z,97947.59
2023-04-10T16:08:07.824Z,97947.49
2023-04-10T16:10:43.777Z,97936.95
2023-04-10T16:13:18.221Z,97930.23
2023-04-10T16:15:55.425Z,97923.15
2023-04-10T16:18:30.079Z,97926.39
2023-04-10T16:21:05.154Z,97932.65
2023-04-10T16:23:39.511Z,97928.48
2023-04-10T16:26:12.870Z,97925.23
2023-04-10T16:28:48.765Z,97918.80
2023-04-10T16:31:25.168Z,97914.98
2023-04-10T16:33:58.163Z,97913.30
2023-04-10T16:36:30.678Z,97916.88
2023-04-10T16:39:05.438Z,97919.63
2023-04-10T16:41:40.541Z,97918.59
2023-04-10T16:44:17.484Z,97919.63
2023-04-10T16:46:52.503Z,97919.69
2023-04-10T16:49:27.630Z,97918.91
2023-04-10T16:52:03.248Z,97927.52
2023-04-10T16:54:36.460Z,97930.55
2023-04-10T16:57:10.862Z,97935.05
2023-04-10T16:59:46.073Z,97951.44
2023-04-10T17:02:21.321Z,97958.17
2023-04-10T17:04:56.813Z,97962.98
2023-04-10T17:07:30.135Z,97969.11
2023-04-10T17:10:02.824Z,97968.77
2023-04-10T17:12:36.286Z,97973.20
2023-04-10T17:15:09.312Z,97975.41
2023-04-10T17:17:45.831Z,97985.21
2023-04-10T17:24:56.088Z,98027.84
2023-04-10T17:28:28.846Z,98028.30
2023-04-10T17:36:00.825Z,98038.38
2023-04-10T17:39:19.723Z,98035.75
2023-04-10T17:45:57.057Z,97995.21
2023-04-10T17:48:30.501Z,97986.13
2023-04-10T17:51:05.555Z,97982.20
2023-04-10T17:53:38.437Z,97980.33
2023-04-10T17:56:18.920Z,97978.08
2023-04-10T17:58:52.109Z,97973.10
2023-04-10T18:01:30.437Z,97970.55
2023-04-10T18:04:06.267Z,97968.14
2023-04-10T18:06:39.093Z,97963.52
2023-04-10T18:09:15.208Z,97961.14
2023-04-10T18:11:52.263Z,97970.48
2023-04-10T18:14:26.533Z,97969.76
2023-04-10T18:16:59.429Z,97974.16
2023-04-10T18:19:33.284Z,97973.95
2023-04-10T18:22:09.326Z,97976.27
2023-04-10T18:24:47.373Z,97976.41
2023-04-10T18:27:20.036Z,97973.38
2023-04-10T18:29:55.849Z,97970.80
2023-04-10T18:32:31.332Z,97974.77
2023-04-10T18:35:17.424Z,97966.17
2023-04-10T18:37:51.509Z,97966.93
2023-04-10T18:40:24.725Z,97962.30
2023-04-10T18:42:59.541Z,97965.81
2023-04-10T18:45:36.732Z,97962.16
2023-04-10T18:48:09.822Z,97968.34
2023-04-10T18:50:42.866Z,97962.65
2023-04-10T18:53:15.950Z,97958.64
2023-04-10T18:55:55.646Z,97953.88
2023-04-10T18:58:29.148Z,97952.52
2023-04-10T19:01:01.886Z,97960.20
2023-04-10T19:03:35.633Z,97956.48
2023-04-10T19:06:12.076Z,97953.95
2023-04-10T19:08:45.419Z,97946.30
2023-04-10T19:11:33.202Z,97942.61
2023-04-10T19:14:08.634Z,97939.76
2023-04-10T19:16:47.602Z,97933.42
2023-04-10T19:19:20.741Z,97931.39
2023-04-10T19:21:53.596Z,97932.73
2023-04-10T19:24:26.789Z,97929.73
2023-04-10T19:27:05.673Z,97924.58
2023-04-10T19:29:39.582Z,97923.38
2023-04-10T19:32:12.363Z,97918.11
2023-04-10T19:34:45.052Z,97920.11
2023-04-10T19:37:17.783Z,97914.50
2023-04-10T19:39:50.606Z,97911.23
2023-04-10T19:42:23.276Z,97908.00
2023-04-10T19:44:56.241Z,97903.02
2023-04-10T19:47:29.048Z,97901.45
2023-04-10T19:50:09.747Z,97894.94
2023-04-10T19:52:44.301Z,97889.13
2023-04-10T19:55:18.800Z,97885.34
2023-04-10T19:57:51.881Z,97882.97
2023-04-10T20:00:27.716Z,97883.18
2023-04-10T20:03:03.121Z,97878.55
2023-04-10T20:05:36.740Z,97877.08
2023-04-10T20:08:09.555Z,97870.84
2023-04-10T20:10:43.771Z,97870.75
2023-04-10T20:13:16.589Z,97867.66
2023-04-10T20:15:50.050Z,97865.80
2023-04-10T20:18:23.236Z,97861.20
2023-04-10T20:20:56.641Z,97860.45
2023-04-10T20:23:29.202Z,97862.70
2023-04-10T20:26:01.955Z,97857.64
2023-04-10T20:28:34.556Z,97859.38
2023-04-10T20:31:07.865Z,97855.95
2023-04-10T20:33:41.127Z,97853.92
2023-04-10T20:36:14.043Z,97858.08
2023-04-10T20:38:48.214Z,97858.54
2023-04-10T20:41:21.137Z,97853.39
2023-04-10T20:43:53.792Z,97850.33
2023-04-10T20:46:27.922Z,97852.71
2023-04-10T20:49:00.626Z,97850.00
2023-04-10T20:51:37.725Z,97845.61
2023-04-10T20:54:11.964Z,97838.37
2023-04-10T20:56:49.023Z,97841.66
2023-04-10T20:59:23.911Z,97837.95
2023-04-10T21:01:56.842Z,97841.89
2023-04-10T21:04:29.448Z,97841.56
2023-04-10T21:07:02.223Z,97845.52
2023-04-10T21:09:35.124Z,97847.27
2023-04-10T21:12:08.086Z,97841.62
2023-04-10T21:14:41.012Z,97843.52
2023-04-10T21:17:13.728Z,97836.20
2023-04-10T21:19:46.755Z,97833.54
2023-04-10T21:22:19.337Z,97832.70
2023-04-10T21:24:51.899Z,97832.02
2023-04-10T21:27:25.163Z,97828.84
2023-04-10T21:29:57.927Z,97828.67
2023-04-10T21:32:30.714Z,97826.52
2023-04-10T21:35:03.752Z,97827.06
2023-04-10T21:37:36.503Z,97826.71
2023-04-10T21:40:11.711Z,97831.70
2023-04-10T21:42:44.279Z,97831.33
2023-04-10T21:45:17.453Z,97826.61
2023-04-10T21:47:50.075Z,97826.44
2023-04-10T21:50:22.742Z,97820.41
2023-04-10T21:52:55.462Z,97818.89
2023-04-10T21:55:28.084Z,97816.50
2023-04-10T21:58:00.682Z,97819.44
2023-04-10T22:00:34.594Z,97815.33
2023-04-10T22:03:08.916Z,97808.69
2023-04-10T22:05:41.672Z,97805.94
2023-04-10T22:08:14.641Z,97804.74
2023-04-10T22:10:48.267Z,97801.85
2023-04-10T22:13:30.172Z,97799.29
2023-04-10T22:16:05.709Z,97799.14
2023-04-10T22:18:40.483Z,97798.66
2023-04-10T22:21:13.690Z,97796.79
2023-04-10T22:23:46.434Z,97790.13
2023-04-10T22:26:20.631Z,97794.79
2023-04-10T22:28:53.601Z,97788.61
2023-04-10T22:31:26.703Z,97789.11
2023-04-10T22:33:59.351Z,97783.95
2023-04-10T22:36:36.144Z,97779.48
2023-04-10T22:39:09.022Z,97773.51
2023-04-10T22:41:43.225Z,97773.87
2023-04-10T22:44:16.257Z,97772.19
2023-04-10T22:46:49.172Z,97769.44
2023-04-10T22:49:21.819Z,97770.87
2023-04-10T22:51:54.682Z,97770.71
2023-04-10T22:54:27.455Z,97766.79
2023-04-10T22:57:00.492Z,97769.85
2023-04-10T22:59:33.140Z,97766.23
2023-04-10T23:02:06.078Z,97765.23
2023-04-10T23:04:39.021Z,97760.28
2023-04-10T23:07:11.731Z,97759.96
2023-04-10T23:09:44.641Z,97757.39
2023-04-10T23:12:17.221Z,97761.02
2023-04-10T23:14:50.050Z,97758.08
2023-04-10T23:17:23.216Z,97756.56
2023-04-10T23:19:56.120Z,97750.05
2023-04-10T23:22:29.643Z,97748.89
2023-04-10T23:25:02.462Z,97747.52
2023-04-10T23:27:35.136Z,97747.17
2023-04-10T23:30:10.719Z,97747.52
2023-04-10T23:32:45.246Z,97740.17
2023-04-10T23:35:18.354Z,97731.79
2023-04-10T23:37:51.426Z,97726.34
2023-04-10T23:40:25.144Z,97725.01
2023-04-10T23:42:55.853Z,97714.72
2023-04-10T23:45:28.803Z,97709.45
2023-04-10T23:48:01.460Z,97703.63
2023-04-10T23:50:35.050Z,97696.10
2023-04-10T23:53:08.914Z,97690.10
2023-04-10T23:55:42.593Z,97689.27
2023-04-10T23:58:16.094Z,97677.44
